Terminal Aerodrome Forecast
Issued by NWS Newport/Morehead City, NC

Current Version | Previous Version | Text Only | Print | Product List | Glossary Off
Versions: 1 2 3 4 5 6 7 8 9 10 11 12

000
FTUS42 KMHX 271720
TAFEWN
TAF
KEWN 271720Z 2718/2818 25006KT P6SM SCT050
     FM272000 21006KT P6SM VCTS SCT040CB
     FM280000 23006KT P6SM SCT050=

USA.gov is the U.S. government's official web portal to all federal, state and local government web resources and services.